sensor_id;sensor_type;location;lat;lon;timestamp;temperature;humidity
38265;DHT22;24062;47.480;8.768;2024-03-17T00:02:07;21.80;54.00
38265;DHT22;24062;47.480;8.768;2024-03-17T00:04:33;21.70;53.90
38265;DHT22;24062;47.480;8.768;2024-03-17T00:07:01;21.70;54.00
38265;DHT22;24062;47.480;8.768;2024-03-17T00:09:27;21.70;54.00
38265;DHT22;24062;47.480;8.768;2024-03-17T00:11:54;21.70;54.00
38265;DHT22;24062;47.480;8.768;2024-03-17T00:14:21;21.70;54.00
38265;DHT22;24062;47.480;8.768;2024-03-17T00:16:48;21.60;54.00
38265;DHT22;24062;47.480;8.768;2024-03-17T00:19:14;21.60;54.00
38265;DHT22;24062;47.480;8.768;2024-03-17T00:21:42;21.60;54.00
38265;DHT22;24062;47.480;8.768;2024-03-17T00:24:09;21.60;54.00
38265;DHT22;24062;47.480;8.768;2024-03-17T00:26:39;21.60;54.10
38265;DHT22;24062;47.480;8.768;2024-03-17T00:29:04;21.60;54.10
38265;DHT22;24062;47.480;8.768;2024-03-17T00:31:32;21.50;54.00
38265;DHT22;24062;47.480;8.768;2024-03-17T00:33:57;21.50;54.00
38265;DHT22;24062;47.480;8.768;2024-03-17T00:36:24;21.60;54.10
38265;DHT22;24062;47.480;8.768;2024-03-17T00:38:50;21.60;54.10
38265;DHT22;24062;47.480;8.768;2024-03-17T00:41:19;21.50;54.00
38265;DHT22;24062;47.480;8.768;2024-03-17T00:43:47;21.50;54.10
38265;DHT22;24062;47.480;8.768;2024-03-17T00:46:12;21.50;54.10
38265;DHT22;24062;47.480;8.768;2024-03-17T00:48:39;21.50;54.10
38265;DHT22;24062;47.480;8.768;2024-03-17T00:51:05;21.40;54.00
38265;DHT22;24062;47.480;8.768;2024-03-17T00:53:32;21.40;54.00
38265;DHT22;24062;47.480;8.768;2024-03-17T00:55:58;21.40;54.10
38265;DHT22;24062;47.480;8.768;2024-03-17T00:58:27;21.40;54.10
38265;DHT22;24062;47.480;8.768;2024-03-17T01:00:54;21.40;54.10
38265;DHT22;24062;47.480;8.768;2024-03-17T01:03:21;21.40;54.10
38265;DHT22;24062;47.480;8.768;2024-03-17T01:05:47;21.40;54.20
38265;DHT22;24062;47.480;8.768;2024-03-17T01:08:18;21.40;54.20
38265;DHT22;24062;47.480;8.768;2024-03-17T01:10:45;21.40;54.10
38265;DHT22;24062;47.480;8.768;2024-03-17T01:13:13;21.40;54.80
38265;DHT22;24062;47.480;8.768;2024-03-17T01:15:40;21.30;54.10
38265;DHT22;24062;47.480;8.768;2024-03-17T01:18:08;21.30;54.20
38265;DHT22;24062;47.480;8.768;2024-03-17T01:20:35;21.30;54.20
38265;DHT22;24062;47.480;8.768;2024-03-17T01:23:03;21.30;54.20
38265;DHT22;24062;47.480;8.768;2024-03-17T01:25:29;21.30;54.30
38265;DHT22;24062;47.480;8.768;2024-03-17T01:27:56;21.20;54.30
38265;DHT22;24062;47.480;8.768;2024-03-17T01:30:23;21.20;54.30
38265;DHT22;24062;47.480;8.768;2024-03-17T01:32:51;21.30;54.30
38265;DHT22;24062;47.480;8.768;2024-03-17T01:35:17;21.20;54.30
38265;DHT22;24062;47.480;8.768;2024-03-17T01:37:44;21.20;54.30
38265;DHT22;24062;47.480;8.768;2024-03-17T01:40:11;21.20;54.30
38265;DHT22;24062;47.480;8.768;2024-03-17T01:42:38;21.20;54.30
38265;DHT22;24062;47.480;8.768;2024-03-17T01:45:20;21.20;54.30
38265;DHT22;24062;47.480;8.768;2024-03-17T01:47:52;21.20;54.30
38265;DHT22;24062;47.480;8.768;2024-03-17T01:50:18;21.30;54.40
38265;DHT22;24062;47.480;8.768;2024-03-17T01:52:51;21.10;54.20
38265;DHT22;24062;47.480;8.768;2024-03-17T01:55:17;21.10;54.20
38265;DHT22;24062;47.480;8.768;2024-03-17T01:57:44;21.10;54.20
38265;DHT22;24062;47.480;8.768;2024-03-17T02:00:11;21.10;54.20
38265;DHT22;24062;47.480;8.768;2024-03-17T02:02:39;21.10;54.20
38265;DHT22;24062;47.480;8.768;2024-03-17T02:05:07;21.10;54.20
38265;DHT22;24062;47.480;8.768;2024-03-17T02:07:36;21.10;54.30
38265;DHT22;24062;47.480;8.768;2024-03-17T02:10:02;21.10;54.30
38265;DHT22;24062;47.480;8.768;2024-03-17T02:12:31;21.10;54.30
38265;DHT22;24062;47.480;8.768;2024-03-17T02:14:57;21.00;54.10
38265;DHT22;24062;47.480;8.768;2024-03-17T02:17:24;21.00;54.20
38265;DHT22;24062;47.480;8.768;2024-03-17T02:19:51;21.00;54.10
38265;DHT22;24062;47.480;8.768;2024-03-17T02:22:19;21.00;54.30
38265;DHT22;24062;47.480;8.768;2024-03-17T02:24:45;21.00;54.20
38265;DHT22;24062;47.480;8.768;2024-03-17T02:27:13;21.00;54.20
38265;DHT22;24062;47.480;8.768;2024-03-17T02:29:39;21.00;54.20
38265;DHT22;24062;47.480;8.768;2024-03-17T02:32:06;21.00;54.20
38265;DHT22;24062;47.480;8.768;2024-03-17T02:34:33;20.90;54.10
38265;DHT22;24062;47.480;8.768;2024-03-17T02:37:00;21.00;54.20
38265;DHT22;24062;47.480;8.768;2024-03-17T02:39:27;21.00;54.20
38265;DHT22;24062;47.480;8.768;2024-03-17T02:42:00;20.90;54.20
38265;DHT22;24062;47.480;8.768;2024-03-17T02:44:26;20.90;54.20
38265;DHT22;24062;47.480;8.768;2024-03-17T02:46:52;20.90;54.30
38265;DHT22;24062;47.480;8.768;2024-03-17T02:49:19;20.90;54.30
38265;DHT22;24062;47.480;8.768;2024-03-17T02:51:47;20.90;54.80
38265;DHT22;24062;47.480;8.768;2024-03-17T02:54:15;21.00;54.20
38265;DHT22;24062;47.480;8.768;2024-03-17T02:56:43;21.00;54.10
38265;DHT22;24062;47.480;8.768;2024-03-17T02:59:10;21.10;54.10
38265;DHT22;24062;47.480;8.768;2024-03-17T03:01:37;21.20;54.10
38265;DHT22;24062;47.480;8.768;2024-03-17T03:04:05;21.20;54.00
38265;DHT22;24062;47.480;8.768;2024-03-17T03:06:32;21.30;54.00
38265;DHT22;24062;47.480;8.768;2024-03-17T03:08:59;21.40;54.00
38265;DHT22;24062;47.480;8.768;2024-03-17T03:11:26;21.40;53.90
38265;DHT22;24062;47.480;8.768;2024-03-17T03:13:55;21.40;53.80
38265;DHT22;24062;47.480;8.768;2024-03-17T03:16:21;21.50;53.90
38265;DHT22;24062;47.480;8.768;2024-03-17T03:18:50;21.50;53.70
38265;DHT22;24062;47.480;8.768;2024-03-17T03:21:17;21.60;53.80
38265;DHT22;24062;47.480;8.768;2024-03-17T03:23:44;21.60;53.80
38265;DHT22;24062;47.480;8.768;2024-03-17T03:26:12;21.60;53.70
38265;DHT22;24062;47.480;8.768;2024-03-17T03:28:39;21.60;53.70
38265;DHT22;24062;47.480;8.768;2024-03-17T03:31:10;21.70;53.70
38265;DHT22;24062;47.480;8.768;2024-03-17T03:33:39;21.70;53.60
38265;DHT22;24062;47.480;8.768;2024-03-17T03:36:10;21.70;53.60
38265;DHT22;24062;47.480;8.768;2024-03-17T03:38:37;21.80;53.70
38265;DHT22;24062;47.480;8.768;2024-03-17T03:41:08;21.80;53.60
38265;DHT22;24062;47.480;8.768;2024-03-17T03:43:35;21.80;53.50
38265;DHT22;24062;47.480;8.768;2024-03-17T03:46:04;21.80;53.50
38265;DHT22;24062;47.480;8.768;2024-03-17T03:48:32;21.80;53.50
38265;DHT22;24062;47.480;8.768;2024-03-17T03:51:03;21.80;53.50
38265;DHT22;24062;47.480;8.768;2024-03-17T03:53:30;21.80;53.40
38265;DHT22;24062;47.480;8.768;2024-03-17T03:55:57;21.80;53.40
38265;DHT22;24062;47.480;8.768;2024-03-17T03:58:25;21.80;53.40
38265;DHT22;24062;47.480;8.768;2024-03-17T04:00:51;21.80;53.40
38265;DHT22;24062;47.480;8.768;2024-03-17T04:03:18;21.80;53.40
38265;DHT22;24062;47.480;8.768;2024-03-17T04:05:47;21.80;53.30
38265;DHT22;24062;47.480;8.768;2024-03-17T04:08:13;21.80;53.30
38265;DHT22;24062;47.480;8.768;2024-03-17T04:10:40;21.90;53.30
38265;DHT22;24062;47.480;8.768;2024-03-17T04:13:07;21.90;53.30
38265;DHT22;24062;47.480;8.768;2024-03-17T04:15:34;21.90;53.30
38265;DHT22;24062;47.480;8.768;2024-03-17T04:18:01;21.90;53.20
38265;DHT22;24062;47.480;8.768;2024-03-17T04:20:28;21.90;53.20
38265;DHT22;24062;47.480;8.768;2024-03-17T04:22:56;21.90;53.20
38265;DHT22;24062;47.480;8.768;2024-03-17T04:25:24;21.90;53.20
38265;DHT22;24062;47.480;8.768;2024-03-17T04:27:50;21.90;53.20
38265;DHT22;24062;47.480;8.768;2024-03-17T04:30:17;21.90;53.20
38265;DHT22;24062;47.480;8.768;2024-03-17T04:32:44;21.90;53.20
38265;DHT22;24062;47.480;8.768;2024-03-17T04:35:11;21.90;53.10
38265;DHT22;24062;47.480;8.768;2024-03-17T04:37:38;21.90;53.10
38265;DHT22;24062;47.480;8.768;2024-03-17T04:40:09;22.00;53.20
38265;DHT22;24062;47.480;8.768;2024-03-17T04:42:39;22.00;53.10
38265;DHT22;24062;47.480;8.768;2024-03-17T04:45:07;22.00;53.10
38265;DHT22;24062;47.480;8.768;2024-03-17T04:47:36;21.90;53.00
38265;DHT22;24062;47.480;8.768;2024-03-17T04:50:04;22.00;53.00
38265;DHT22;24062;47.480;8.768;2024-03-17T04:52:31;22.00;53.00
38265;DHT22;24062;47.480;8.768;2024-03-17T04:54:58;21.90;52.90
38265;DHT22;24062;47.480;8.768;2024-03-17T04:57:26;22.00;53.00
38265;DHT22;24062;47.480;8.768;2024-03-17T04:59:53;22.00;53.00
38265;DHT22;24062;47.480;8.768;2024-03-17T05:02:20;22.00;53.00
38265;DHT22;24062;47.480;8.768;2024-03-17T05:04:48;22.00;53.00
38265;DHT22;24062;47.480;8.768;2024-03-17T05:07:15;22.00;52.90
38265;DHT22;24062;47.480;8.768;2024-03-17T05:09:42;21.90;52.80
38265;DHT22;24062;47.480;8.768;2024-03-17T05:12:10;21.90;52.80
38265;DHT22;24062;47.480;8.768;2024-03-17T05:14:39;21.90;52.90
38265;DHT22;24062;47.480;8.768;2024-03-17T05:17:06;21.90;52.90
38265;DHT22;24062;47.480;8.768;2024-03-17T05:19:32;21.90;52.90
38265;DHT22;24062;47.480;8.768;2024-03-17T05:21:59;21.90;52.90
38265;DHT22;24062;47.480;8.768;2024-03-17T05:24:26;21.80;52.90
38265;DHT22;24062;47.480;8.768;2024-03-17T05:26:53;21.90;53.00
38265;DHT22;24062;47.480;8.768;2024-03-17T05:29:20;21.90;53.00
38265;DHT22;24062;47.480;8.768;2024-03-17T05:31:49;21.90;53.00
38265;DHT22;24062;47.480;8.768;2024-03-17T05:34:16;21.90;53.00
38265;DHT22;24062;47.480;8.768;2024-03-17T05:36:43;22.00;53.00
38265;DHT22;24062;47.480;8.768;2024-03-17T05:39:10;21.90;52.90
38265;DHT22;24062;47.480;8.768;2024-03-17T05:41:37;21.90;52.90
38265;DHT22;24062;47.480;8.768;2024-03-17T05:44:04;22.00;53.00
38265;DHT22;24062;47.480;8.768;2024-03-17T05:46:31;22.00;53.00
38265;DHT22;24062;47.480;8.768;2024-03-17T05:48:59;21.90;52.80
38265;DHT22;24062;47.480;8.768;2024-03-17T05:51:26;22.00;52.80
38265;DHT22;24062;47.480;8.768;2024-03-17T05:53:53;22.00;52.80
38265;DHT22;24062;47.480;8.768;2024-03-17T05:56:22;22.00;52.80
38265;DHT22;24062;47.480;8.768;2024-03-17T05:58:49;22.10;52.80
38265;DHT22;24062;47.480;8.768;2024-03-17T06:01:16;22.10;52.80
38265;DHT22;24062;47.480;8.768;2024-03-17T06:03:44;22.10;52.70
38265;DHT22;24062;47.480;8.768;2024-03-17T06:06:13;22.10;52.70
38265;DHT22;24062;47.480;8.768;2024-03-17T06:08:39;22.10;52.70
38265;DHT22;24062;47.480;8.768;2024-03-17T06:11:06;22.10;52.60
38265;DHT22;24062;47.480;8.768;2024-03-17T06:13:34;22.10;52.60
38265;DHT22;24062;47.480;8.768;2024-03-17T06:16:02;22.10;52.50
38265;DHT22;24062;47.480;8.768;2024-03-17T06:18:30;22.20;52.60
38265;DHT22;24062;47.480;8.768;2024-03-17T06:20:57;22.20;52.60
38265;DHT22;24062;47.480;8.768;2024-03-17T06:23:26;22.20;52.60
38265;DHT22;24062;47.480;8.768;2024-03-17T06:25:56;22.20;52.40
38265;DHT22;24062;47.480;8.768;2024-03-17T06:28:23;22.30;52.40
38265;DHT22;24062;47.480;8.768;2024-03-17T06:30:56;22.40;52.40
38265;DHT22;24062;47.480;8.768;2024-03-17T06:33:25;22.40;52.40
38265;DHT22;24062;47.480;8.768;2024-03-17T06:35:52;22.40;52.30
38265;DHT22;24062;47.480;8.768;2024-03-17T06:38:19;22.40;52.30
38265;DHT22;24062;47.480;8.768;2024-03-17T06:40:50;22.40;52.20
38265;DHT22;24062;47.480;8.768;2024-03-17T06:43:17;22.50;52.30
38265;DHT22;24062;47.480;8.768;2024-03-17T06:45:44;22.40;52.20
38265;DHT22;24062;47.480;8.768;2024-03-17T06:48:11;22.50;52.20
38265;DHT22;24062;47.480;8.768;2024-03-17T06:50:38;22.50;52.20
38265;DHT22;24062;47.480;8.768;2024-03-17T06:53:08;22.50;52.20
38265;DHT22;24062;47.480;8.768;2024-03-17T06:55:36;22.50;52.10
38265;DHT22;24062;47.480;8.768;2024-03-17T06:58:04;22.60;52.20
38265;DHT22;24062;47.480;8.768;2024-03-17T07:00:32;22.60;52.10
38265;DHT22;24062;47.480;8.768;2024-03-17T07:02:59;22.60;52.10
38265;DHT22;24062;47.480;8.768;2024-03-17T07:05:25;22.60;52.10
38265;DHT22;24062;47.480;8.768;2024-03-17T07:07:55;22.60;52.10
38265;DHT22;24062;47.480;8.768;2024-03-17T07:10:22;22.60;52.10
38265;DHT22;24062;47.480;8.768;2024-03-17T07:12:49;22.70;52.20
38265;DHT22;24062;47.480;8.768;2024-03-17T07:15:17;22.70;52.10
38265;DHT22;24062;47.480;8.768;2024-03-17T07:17:44;22.70;52.10
38265;DHT22;24062;47.480;8.768;2024-03-17T07:20:11;22.70;52.00
38265;DHT22;24062;47.480;8.768;2024-03-17T07:22:38;22.80;52.00
38265;DHT22;24062;47.480;8.768;2024-03-17T07:25:06;22.80;52.00
38265;DHT22;24062;47.480;8.768;2024-03-17T07:27:33;22.90;52.00
38265;DHT22;24062;47.480;8.768;2024-03-17T07:30:04;23.00;51.90
38265;DHT22;24062;47.480;8.768;2024-03-17T07:32:33;23.00;51.80
38265;DHT22;24062;47.480;8.768;2024-03-17T07:35:00;23.10;51.60
38265;DHT22;24062;47.480;8.768;2024-03-17T07:37:27;23.30;51.60
38265;DHT22;24062;47.480;8.768;2024-03-17T07:39:54;23.50;51.40
38265;DHT22;24062;47.480;8.768;2024-03-17T07:42:21;23.60;51.20
38265;DHT22;24062;47.480;8.768;2024-03-17T07:44:48;23.70;51.60
38265;DHT22;24062;47.480;8.768;2024-03-17T07:47:16;23.90;50.90
38265;DHT22;24062;47.480;8.768;2024-03-17T07:49:47;24.10;50.70
38265;DHT22;24062;47.480;8.768;2024-03-17T07:52:14;24.10;50.60
38265;DHT22;24062;47.480;8.768;2024-03-17T07:54:41;24.40;51.00
38265;DHT22;24062;47.480;8.768;2024-03-17T07:57:08;24.60;50.30
38265;DHT22;24062;47.480;8.768;2024-03-17T07:59:35;24.90;49.90
38265;DHT22;24062;47.480;8.768;2024-03-17T08:02:02;25.10;49.40
38265;DHT22;24062;47.480;8.768;2024-03-17T08:04:28;25.30;49.20
38265;DHT22;24062;47.480;8.768;2024-03-17T08:06:56;25.50;49.00
38265;DHT22;24062;47.480;8.768;2024-03-17T08:09:23;26.10;48.40
38265;DHT22;24062;47.480;8.768;2024-03-17T08:11:50;27.10;47.20
38265;DHT22;24062;47.480;8.768;2024-03-17T08:14:18;28.50;45.60
38265;DHT22;24062;47.480;8.768;2024-03-17T08:16:45;29.60;43.90
38265;DHT22;24062;47.480;8.768;2024-03-17T08:19:12;30.60;42.90
38265;DHT22;24062;47.480;8.768;2024-03-17T08:21:39;31.50;41.70
38265;DHT22;24062;47.480;8.768;2024-03-17T08:24:07;32.20;40.70
38265;DHT22;24062;47.480;8.768;2024-03-17T08:26:34;32.40;40.30
38265;DHT22;24062;47.480;8.768;2024-03-17T08:29:01;32.80;40.00
38265;DHT22;24062;47.480;8.768;2024-03-17T08:31:27;33.60;39.20
38265;DHT22;24062;47.480;8.768;2024-03-17T08:33:54;33.80;38.60
38265;DHT22;24062;47.480;8.768;2024-03-17T08:36:21;33.80;38.50
38265;DHT22;24062;47.480;8.768;2024-03-17T08:38:48;32.80;38.70
38265;DHT22;24062;47.480;8.768;2024-03-17T08:41:17;31.60;39.80
38265;DHT22;24062;47.480;8.768;2024-03-17T08:43:44;30.40;41.00
38265;DHT22;24062;47.480;8.768;2024-03-17T08:46:11;29.50;42.10
38265;DHT22;24062;47.480;8.768;2024-03-17T08:48:40;28.90;43.10
38265;DHT22;24062;47.480;8.768;2024-03-17T08:51:07;28.40;43.80
38265;DHT22;24062;47.480;8.768;2024-03-17T08:53:35;28.20;44.20
38265;DHT22;24062;47.480;8.768;2024-03-17T08:56:04;28.40;44.20
38265;DHT22;24062;47.480;8.768;2024-03-17T08:58:33;28.90;43.90
38265;DHT22;24062;47.480;8.768;2024-03-17T09:01:03;29.20;43.40
38265;DHT22;24062;47.480;8.768;2024-03-17T09:03:31;29.10;43.30
38265;DHT22;24062;47.480;8.768;2024-03-17T09:05:57;29.00;43.40
38265;DHT22;24062;47.480;8.768;2024-03-17T09:08:25;28.80;43.60
38265;DHT22;24062;47.480;8.768;2024-03-17T09:10:53;28.60;43.80
38265;DHT22;24062;47.480;8.768;2024-03-17T09:13:22;28.30;44.20
38265;DHT22;24062;47.480;8.768;2024-03-17T09:15:52;27.80;44.60
38265;DHT22;24062;47.480;8.768;2024-03-17T09:18:19;27.40;45.20
38265;DHT22;24062;47.480;8.768;2024-03-17T09:20:46;27.10;45.70
38265;DHT22;24062;47.480;8.768;2024-03-17T09:23:21;26.80;46.10
38265;DHT22;24062;47.480;8.768;2024-03-17T09:25:55;26.60;46.40
38265;DHT22;24062;47.480;8.768;2024-03-17T09:28:22;26.50;46.70
38265;DHT22;24062;47.480;8.768;2024-03-17T09:30:49;26.40;46.90
38265;DHT22;24062;47.480;8.768;2024-03-17T09:33:19;26.40;47.10
38265;DHT22;24062;47.480;8.768;2024-03-17T09:35:53;26.30;47.30
38265;DHT22;24062;47.480;8.768;2024-03-17T09:38:20;26.20;47.50
38265;DHT22;24062;47.480;8.768;2024-03-17T09:40:48;26.10;47.60
38265;DHT22;24062;47.480;8.768;2024-03-17T09:43:19;25.90;47.80
38265;DHT22;24062;47.480;8.768;2024-03-17T09:45:46;25.80;48.00
38265;DHT22;24062;47.480;8.768;2024-03-17T09:48:15;25.60;48.10
38265;DHT22;24062;47.480;8.768;2024-03-17T09:50:50;25.50;48.40
38265;DHT22;24062;47.480;8.768;2024-03-17T09:53:22;25.30;48.70
38265;DHT22;24062;47.480;8.768;2024-03-17T09:55:50;25.20;49.00
38265;DHT22;24062;47.480;8.768;2024-03-17T09:58:17;25.10;49.20
38265;DHT22;24062;47.480;8.768;2024-03-17T10:00:45;25.00;49.40
38265;DHT22;24062;47.480;8.768;2024-03-17T10:03:12;25.00;49.50
38265;DHT22;24062;47.480;8.768;2024-03-17T10:05:39;24.90;49.50
38265;DHT22;24062;47.480;8.768;2024-03-17T10:08:20;24.90;49.60
38265;DHT22;24062;47.480;8.768;2024-03-17T10:10:52;24.90;49.70
38265;DHT22;24062;47.480;8.768;2024-03-17T10:13:20;24.80;49.70
38265;DHT22;24062;47.480;8.768;2024-03-17T10:15:48;24.80;49.90
38265;DHT22;24062;47.480;8.768;2024-03-17T10:18:20;24.80;49.90
38265;DHT22;24062;47.480;8.768;2024-03-17T10:20:49;24.70;50.00
38265;DHT22;24062;47.480;8.768;2024-03-17T10:23:22;24.60;50.00
38265;DHT22;24062;47.480;8.768;2024-03-17T10:25:49;24.60;50.10
38265;DHT22;24062;47.480;8.768;2024-03-17T10:28:17;24.60;50.20
38265;DHT22;24062;47.480;8.768;2024-03-17T10:30:57;24.70;50.90
38265;DHT22;24062;47.480;8.768;2024-03-17T10:33:25;24.50;50.30
38265;DHT22;24062;47.480;8.768;2024-03-17T10:35:59;24.50;50.40
38265;DHT22;24062;47.480;8.768;2024-03-17T10:38:29;24.40;50.40
38265;DHT22;24062;47.480;8.768;2024-03-17T10:40:56;24.40;50.40
38265;DHT22;24062;47.480;8.768;2024-03-17T10:43:23;24.40;50.50
38265;DHT22;24062;47.480;8.768;2024-03-17T10:45:54;24.40;50.60
38265;DHT22;24062;47.480;8.768;2024-03-17T10:48:29;24.40;50.60
38265;DHT22;24062;47.480;8.768;2024-03-17T10:50:59;24.40;50.60
38265;DHT22;24062;47.480;8.768;2024-03-17T10:53:30;24.40;50.60
38265;DHT22;24062;47.480;8.768;2024-03-17T10:56:04;24.40;50.60
38265;DHT22;24062;47.480;8.768;2024-03-17T10:58:35;24.30;50.60
38265;DHT22;24062;47.480;8.768;2024-03-17T11:01:03;24.30;50.60
38265;DHT22;24062;47.480;8.768;2024-03-17T11:03:31;24.40;50.70
38265;DHT22;24062;47.480;8.768;2024-03-17T11:06:00;24.30;50.70
38265;DHT22;24062;47.480;8.768;2024-03-17T11:08:31;24.30;50.80
38265;DHT22;24062;47.480;8.768;2024-03-17T11:10:59;24.30;50.90
38265;DHT22;24062;47.480;8.768;2024-03-17T11:13:27;24.20;50.80
38265;DHT22;24062;47.480;8.768;2024-03-17T11:15:55;24.20;50.90
38265;DHT22;24062;47.480;8.768;2024-03-17T11:18:33;24.20;50.90
38265;DHT22;24062;47.480;8.768;2024-03-17T11:21:00;24.20;50.90
38265;DHT22;24062;47.480;8.768;2024-03-17T11:23:35;24.20;50.90
38265;DHT22;24062;47.480;8.768;2024-03-17T11:26:04;24.20;50.90
38265;DHT22;24062;47.480;8.768;2024-03-17T11:28:51;24.20;51.00
38265;DHT22;24062;47.480;8.768;2024-03-17T11:31:44;24.20;51.00
38265;DHT22;24062;47.480;8.768;2024-03-17T11:34:31;24.20;51.00
38265;DHT22;24062;47.480;8.768;2024-03-17T11:36:58;24.20;51.00
38265;DHT22;24062;47.480;8.768;2024-03-17T11:39:49;24.20;51.00
38265;DHT22;24062;47.480;8.768;2024-03-17T11:42:18;24.20;51.00
38265;DHT22;24062;47.480;8.768;2024-03-17T11:44:56;24.20;51.00
38265;DHT22;24062;47.480;8.768;2024-03-17T11:47:23;24.20;51.00
38265;DHT22;24062;47.480;8.768;2024-03-17T11:50:02;24.20;51.00
38265;DHT22;24062;47.480;8.768;2024-03-17T11:52:28;24.20;51.60
38265;DHT22;24062;47.480;8.768;2024-03-17T11:54:57;24.20;51.00
38265;DHT22;24062;47.480;8.768;2024-03-17T11:57:24;24.10;50.90
38265;DHT22;24062;47.480;8.768;2024-03-17T11:59:52;24.20;51.00
38265;DHT22;24062;47.480;8.768;2024-03-17T12:02:20;24.20;51.00
38265;DHT22;24062;47.480;8.768;2024-03-17T12:04:47;24.20;51.00
38265;DHT22;24062;47.480;8.768;2024-03-17T12:07:15;24.10;50.90
38265;DHT22;24062;47.480;8.768;2024-03-17T12:09:42;24.10;50.90
38265;DHT22;24062;47.480;8.768;2024-03-17T12:12:10;24.20;51.00
38265;DHT22;24062;47.480;8.768;2024-03-17T12:14:38;24.20;51.00
38265;DHT22;24062;47.480;8.768;2024-03-17T12:17:06;24.20;51.00
38265;DHT22;24062;47.480;8.768;2024-03-17T12:19:33;24.20;51.00
38265;DHT22;24062;47.480;8.768;2024-03-17T12:22:01;24.20;51.00
38265;DHT22;24062;47.480;8.768;2024-03-17T12:24:29;24.20;51.10
38265;DHT22;24062;47.480;8.768;2024-03-17T12:26:57;24.20;51.10
38265;DHT22;24062;47.480;8.768;2024-03-17T12:29:28;24.10;51.10
38265;DHT22;24062;47.480;8.768;2024-03-17T12:31:59;24.10;51.20
38265;DHT22;24062;47.480;8.768;2024-03-17T12:34:27;24.10;51.20
38265;DHT22;24062;47.480;8.768;2024-03-17T12:36:57;24.10;51.20
38265;DHT22;24062;47.480;8.768;2024-03-17T12:39:24;24.10;51.20
38265;DHT22;24062;47.480;8.768;2024-03-17T12:42:03;24.10;51.20
38265;DHT22;24062;47.480;8.768;2024-03-17T12:44:31;24.10;51.30
38265;DHT22;24062;47.480;8.768;2024-03-17T12:46:59;24.10;51.40
38265;DHT22;24062;47.480;8.768;2024-03-17T12:49:26;24.10;51.50
38265;DHT22;24062;47.480;8.768;2024-03-17T12:51:54;24.00;51.50
38265;DHT22;24062;47.480;8.768;2024-03-17T12:54:22;24.00;51.90
38265;DHT22;24062;47.480;8.768;2024-03-17T12:56:50;24.00;51.60
38265;DHT22;24062;47.480;8.768;2024-03-17T12:59:43;24.00;51.70
38265;DHT22;24062;47.480;8.768;2024-03-17T13:02:27;24.00;51.80
38265;DHT22;24062;47.480;8.768;2024-03-17T13:05:10;24.00;51.90
38265;DHT22;24062;47.480;8.768;2024-03-17T13:07:39;24.00;52.10
38265;DHT22;24062;47.480;8.768;2024-03-17T13:10:07;24.00;52.10
38265;DHT22;24062;47.480;8.768;2024-03-17T13:12:34;24.00;52.30
38265;DHT22;24062;47.480;8.768;2024-03-17T13:15:03;24.00;52.30
38265;DHT22;24062;47.480;8.768;2024-03-17T13:17:30;24.00;52.40
38265;DHT22;24062;47.480;8.768;2024-03-17T13:19:59;24.00;52.30
38265;DHT22;24062;47.480;8.768;2024-03-17T13:22:26;24.00;52.40
38265;DHT22;24062;47.480;8.768;2024-03-17T13:24:53;24.10;52.50
38265;DHT22;24062;47.480;8.768;2024-03-17T13:27:20;24.00;52.40
38265;DHT22;24062;47.480;8.768;2024-03-17T13:29:50;24.10;52.50
38265;DHT22;24062;47.480;8.768;2024-03-17T13:32:18;24.10;52.60
38265;DHT22;24062;47.480;8.768;2024-03-17T13:34:45;24.00;52.50
38265;DHT22;24062;47.480;8.768;2024-03-17T13:37:12;24.10;52.60
38265;DHT22;24062;47.480;8.768;2024-03-17T13:39:38;24.10;52.50
38265;DHT22;24062;47.480;8.768;2024-03-17T13:42:06;24.00;52.50
38265;DHT22;24062;47.480;8.768;2024-03-17T13:44:34;24.10;52.60
38265;DHT22;24062;47.480;8.768;2024-03-17T13:47:01;24.10;52.60
38265;DHT22;24062;47.480;8.768;2024-03-17T13:49:30;24.10;52.60
38265;DHT22;24062;47.480;8.768;2024-03-17T13:51:57;24.00;52.40
38265;DHT22;24062;47.480;8.768;2024-03-17T13:54:24;24.10;52.50
38265;DHT22;24062;47.480;8.768;2024-03-17T13:56:51;24.10;52.50
38265;DHT22;24062;47.480;8.768;2024-03-17T13:59:18;24.10;52.60
38265;DHT22;24062;47.480;8.768;2024-03-17T14:01:45;24.00;52.50
38265;DHT22;24062;47.480;8.768;2024-03-17T14:04:15;24.00;52.50
38265;DHT22;24062;47.480;8.768;2024-03-17T14:06:45;24.00;52.60
38265;DHT22;24062;47.480;8.768;2024-03-17T14:09:12;24.00;52.60
38265;DHT22;24062;47.480;8.768;2024-03-17T14:11:40;24.00;52.60
38265;DHT22;24062;47.480;8.768;2024-03-17T14:14:06;24.00;52.70
38265;DHT22;24062;47.480;8.768;2024-03-17T14:16:34;24.00;52.60
38265;DHT22;24062;47.480;8.768;2024-03-17T14:19:01;24.00;52.60
38265;DHT22;24062;47.480;8.768;2024-03-17T14:21:28;24.10;52.70
38265;DHT22;24062;47.480;8.768;2024-03-17T14:23:56;24.10;52.70
38265;DHT22;24062;47.480;8.768;2024-03-17T14:26:24;24.10;52.70
38265;DHT22;24062;47.480;8.768;2024-03-17T14:28:51;24.10;52.70
38265;DHT22;24062;47.480;8.768;2024-03-17T14:31:20;24.10;52.80
38265;DHT22;24062;47.480;8.768;2024-03-17T14:33:47;24.10;52.80
38265;DHT22;24062;47.480;8.768;2024-03-17T14:36:14;24.10;52.90
38265;DHT22;24062;47.480;8.768;2024-03-17T14:38:40;24.10;52.90
38265;DHT22;24062;47.480;8.768;2024-03-17T14:41:10;24.10;53.00
38265;DHT22;24062;47.480;8.768;2024-03-17T14:43:38;24.10;53.00
38265;DHT22;24062;47.480;8.768;2024-03-17T14:46:05;24.00;53.00
38265;DHT22;24062;47.480;8.768;2024-03-17T14:48:33;24.00;53.60
38265;DHT22;24062;47.480;8.768;2024-03-17T14:51:00;24.00;53.10
38265;DHT22;24062;47.480;8.768;2024-03-17T14:53:28;24.00;53.20
38265;DHT22;24062;47.480;8.768;2024-03-17T14:55:54;24.00;53.30
38265;DHT22;24062;47.480;8.768;2024-03-17T14:58:23;24.00;53.30
38265;DHT22;24062;47.480;8.768;2024-03-17T15:00:50;24.00;53.30
38265;DHT22;24062;47.480;8.768;2024-03-17T15:03:18;24.00;53.40
38265;DHT22;24062;47.480;8.768;2024-03-17T15:05:45;24.00;53.40
38265;DHT22;24062;47.480;8.768;2024-03-17T15:08:12;24.00;53.40
38265;DHT22;24062;47.480;8.768;2024-03-17T15:10:38;24.00;53.40
38265;DHT22;24062;47.480;8.768;2024-03-17T15:13:05;24.00;53.40
38265;DHT22;24062;47.480;8.768;2024-03-17T15:15:35;24.00;53.40
38265;DHT22;24062;47.480;8.768;2024-03-17T15:18:02;24.00;53.40
38265;DHT22;24062;47.480;8.768;2024-03-17T15:20:29;24.00;53.40
38265;DHT22;24062;47.480;8.768;2024-03-17T15:22:56;24.00;53.40
38265;DHT22;24062;47.480;8.768;2024-03-17T15:25:23;24.00;53.50
38265;DHT22;24062;47.480;8.768;2024-03-17T15:27:50;24.10;53.50
38265;DHT22;24062;47.480;8.768;2024-03-17T15:30:17;24.00;53.50
38265;DHT22;24062;47.480;8.768;2024-03-17T15:32:46;24.00;53.50
38265;DHT22;24062;47.480;8.768;2024-03-17T15:35:13;24.00;53.50
38265;DHT22;24062;47.480;8.768;2024-03-17T15:37:41;24.00;53.60